createdAt,value
2018-08-04T00:01:14.083Z,47.63
2018-08-04T00:06:17.882Z,47.11
2018-08-04T00:11:21.567Z,47.15
2018-08-04T00:16:25.246Z,47.48
2018-08-04T00:21:29.197Z,47.04
2018-08-04T00:26:34.114Z,47.40
2018-08-04T00:31:37.762Z,47.22
2018-08-04T00:36:41.500Z,47.62
2018-08-04T00:41:45.803Z,47.06
2018-08-04T00:46:49.638Z,46.90
2018-08-04T00:51:53.367Z,46.73
2018-08-04T00:56:57.024Z,47.53
2018-08-04T01:02:00.804Z,46.40
2018-08-04T01:07:04.657Z,46.40
2018-08-04T01:12:08.343Z,46.49
2018-08-04T01:17:12.014Z,46.61
2018-08-04T01:22:15.740Z,46.63
2018-08-04T01:27:19.489Z,46.40
2018-08-04T01:32:23.193Z,46.67
2018-08-04T01:37:27.746Z,46.07
2018-08-04T01:42:31.785Z,45.47
2018-08-04T01:47:35.451Z,45.68
2018-08-04T01:52:39.087Z,45.38
2018-08-04T01:57:42.801Z,45.01
2018-08-04T02:02:46.705Z,45.00
2018-08-04T02:07:50.377Z,45.29
2018-08-04T02:12:54.200Z,44.36
2018-08-04T02:17:58.005Z,44.93
2018-08-04T02:23:01.930Z,45.23
2018-08-04T02:28:05.673Z,44.00
2018-08-04T02:33:09.389Z,44.24
2018-08-04T02:38:13.180Z,43.76
2018-08-04T02:43:16.912Z,44.50
2018-08-04T02:48:20.613Z,44.39
2018-08-04T02:53:24.371Z,43.82
2018-08-04T02:58:28.051Z,43.79
2018-08-04T03:03:31.727Z,44.10
2018-08-04T03:08:35.435Z,44.85
2018-08-04T03:13:39.313Z,43.79
2018-08-04T03:18:43.034Z,44.87
2018-08-04T03:23:46.890Z,42.27
2018-08-04T03:28:50.660Z,42.74
2018-08-04T03:33:54.755Z,42.78
2018-08-04T03:38:58.600Z,41.73
2018-08-04T03:44:02.498Z,42.48
2018-08-04T03:49:06.374Z,42.36
2018-08-04T03:54:10.158Z,42.62
2018-08-04T03:59:14.336Z,42.28
2018-08-04T04:04:18.118Z,42.75
2018-08-04T04:09:21.940Z,41.88
2018-08-04T04:14:26.354Z,42.52
2018-08-04T04:19:30.191Z,42.57
2018-08-04T04:24:33.995Z,42.13
2018-08-04T04:29:37.838Z,42.69
2018-08-04T04:34:42.737Z,42.99
2018-08-04T04:39:46.619Z,42.34
2018-08-04T04:44:50.366Z,42.12
2018-08-04T04:49:54.429Z,42.58
2018-08-04T04:54:58.335Z,42.02
2018-08-04T05:00:05.715Z,42.09
2018-08-04T05:14:44.294Z,42.11
2018-08-04T05:19:48.010Z,42.49
2018-08-04T05:24:51.821Z,42.88
2018-08-04T05:29:55.655Z,43.48
2018-08-04T05:34:59.459Z,43.36
2018-08-04T05:40:08.124Z,42.37
2018-08-04T05:45:11.884Z,43.21
2018-08-04T05:50:15.699Z,42.31
2018-08-04T05:55:19.583Z,42.35
2018-08-04T06:00:25.249Z,41.61
2018-08-04T06:05:29.439Z,42.02
2018-08-04T06:10:33.154Z,41.15
2018-08-04T06:15:36.823Z,41.44
2018-08-04T06:20:40.638Z,41.25
2018-08-04T06:25:44.441Z,41.40
2018-08-04T06:30:48.227Z,42.13
2018-08-04T06:35:52.111Z,43.31
2018-08-04T06:40:56.144Z,43.54
2018-08-04T06:46:01.845Z,44.38
2018-08-04T06:51:05.998Z,43.37
2018-08-04T06:56:09.804Z,44.17
2018-08-04T07:01:13.546Z,43.80
2018-08-04T07:06:17.150Z,43.84
2018-08-04T07:11:20.851Z,44.53
2018-08-04T07:16:24.497Z,44.28
2018-08-04T07:21:28.125Z,44.25
2018-08-04T07:26:31.835Z,45.22
2018-08-04T07:31:35.583Z,44.72
2018-08-04T07:36:39.271Z,45.28
2018-08-04T07:41:42.935Z,45.22
2018-08-04T07:46:46.595Z,45.78
2018-08-04T07:51:50.450Z,45.85
2018-08-04T07:56:54.130Z,45.77
2018-08-04T08:01:57.843Z,46.13
2018-08-04T08:07:01.552Z,46.34
2018-08-04T08:12:05.297Z,46.31
2018-08-04T08:17:08.971Z,45.83
2018-08-04T08:22:12.899Z,46.14
2018-08-04T08:27:16.578Z,46.57
2018-08-04T08:32:20.486Z,46.59
2018-08-04T08:37:24.282Z,46.59
2018-08-04T08:42:29.123Z,46.70
2018-08-04T08:47:33.253Z,46.75
2018-08-04T08:52:37.152Z,46.32
2018-08-04T08:57:40.943Z,47.24
2018-08-04T09:02:44.728Z,47.00
2018-08-04T09:07:48.414Z,47.29
2018-08-04T09:12:52.122Z,47.47
2018-08-04T09:17:56.749Z,47.48
2018-08-04T09:23:00.564Z,47.44
2018-08-04T09:28:04.306Z,47.81
2018-08-04T09:33:08.511Z,47.70
2018-08-04T09:38:12.203Z,47.93
2018-08-04T09:43:15.931Z,47.70
2018-08-04T09:48:19.634Z,48.12
2018-08-04T09:53:23.306Z,48.03
2018-08-04T09:58:27.040Z,48.32
2018-08-04T10:03:30.786Z,48.48
2018-08-04T10:08:34.514Z,48.63
2018-08-04T10:13:38.173Z,48.36
2018-08-04T10:18:41.842Z,48.31
2018-08-04T10:23:45.740Z,48.25
2018-08-04T10:28:49.423Z,47.91
2018-08-04T10:33:56.122Z,48.22
2018-08-04T10:38:59.824Z,47.90
2018-08-04T10:44:03.652Z,48.30
2018-08-04T10:49:07.225Z,48.44
2018-08-04T10:54:11.172Z,48.57
2018-08-04T10:59:14.981Z,48.38
2018-08-04T11:09:57.073Z,49.09
2018-08-04T11:15:03.426Z,49.19
2018-08-04T11:20:08.776Z,48.77
2018-08-04T11:25:12.547Z,49.23
2018-08-04T11:30:16.379Z,48.98
2018-08-04T11:35:20.385Z,49.16
2018-08-04T11:40:24.587Z,49.17
2018-08-04T11:45:28.291Z,48.91
2018-08-04T11:50:32.159Z,49.15
2018-08-04T11:55:35.810Z,49.51
2018-08-04T12:00:39.499Z,49.34
2018-08-04T12:05:43.167Z,49.48
2018-08-04T12:10:46.994Z,49.94
2018-08-04T12:15:51.002Z,49.80
2018-08-04T12:20:55.626Z,49.34
2018-08-04T12:25:59.366Z,49.53
2018-08-04T12:31:03.134Z,49.40
2018-08-04T12:36:07.823Z,49.54
2018-08-04T12:41:11.626Z,49.78
2018-08-04T12:46:15.614Z,49.97
2018-08-04T12:51:20.175Z,50.23
2018-08-04T12:56:24.027Z,50.18
2018-08-04T13:01:28.295Z,49.87
2018-08-04T13:06:32.818Z,49.75
2018-08-04T13:11:36.810Z,50.22
2018-08-04T13:16:41.154Z,50.05
2018-08-04T13:21:45.886Z,49.74
2018-08-04T13:26:51.406Z,49.80
2018-08-04T13:31:55.276Z,50.04
2018-08-04T13:37:00.995Z,49.91
2018-08-04T13:42:05.126Z,49.78
2018-08-04T13:47:08.935Z,49.45
2018-08-04T13:52:13.269Z,50.16
2018-08-04T13:57:17.359Z,49.71
2018-08-04T14:02:21.433Z,50.08
2018-08-04T14:07:25.030Z,49.74
2018-08-04T14:12:29.150Z,49.66
2018-08-04T14:17:32.821Z,49.56
2018-08-04T14:22:36.707Z,49.40
2018-08-04T14:27:40.591Z,49.44
2018-08-04T14:32:44.537Z,49.95
2018-08-04T14:37:48.940Z,49.76
2018-08-04T14:42:52.799Z,49.81
2018-08-04T14:47:56.507Z,49.73
2018-08-04T14:53:00.229Z,49.55
2018-08-04T14:58:04.043Z,49.97
2018-08-04T15:03:08.216Z,49.80
2018-08-04T15:08:12.354Z,49.67
2018-08-04T15:13:17.575Z,49.59
2018-08-04T15:18:21.276Z,49.61
2018-08-04T15:23:25.861Z,49.41
2018-08-04T15:28:32.378Z,49.45
2018-08-04T15:33:37.114Z,49.41
2018-08-04T15:38:42.553Z,49.00
2018-08-04T15:43:46.449Z,49.11
2018-08-04T15:48:51.038Z,48.79
2018-08-04T15:53:54.967Z,48.64
2018-08-04T15:58:58.803Z,48.52
2018-08-04T16:04:02.576Z,48.95
2018-08-04T16:09:08.457Z,48.76
2018-08-04T16:14:12.195Z,48.50
2018-08-04T16:19:16.347Z,48.35
2018-08-04T16:24:20.164Z,48.64
2018-08-04T16:29:24.413Z,48.48
2018-08-04T16:34:29.365Z,49.29
2018-08-04T16:39:33.193Z,49.22
2018-08-04T16:44:36.935Z,49.10
2018-08-04T16:49:40.718Z,48.77
2018-08-04T16:54:44.566Z,49.13
2018-08-04T16:59:48.586Z,48.81
2018-08-04T17:04:52.318Z,49.16
2018-08-04T17:09:56.022Z,48.87
2018-08-04T17:14:59.750Z,49.03
2018-08-04T17:20:05.850Z,48.74
2018-08-04T17:25:09.619Z,48.92
2018-08-04T17:30:13.399Z,49.22
2018-08-04T17:35:17.149Z,49.41
2018-08-04T17:40:20.874Z,49.18
2018-08-04T17:45:24.528Z,49.44
2018-08-04T17:50:28.214Z,49.32
2018-08-04T17:55:31.845Z,49.49
2018-08-04T18:00:35.627Z,49.21
2018-08-04T18:05:39.488Z,49.36
2018-08-04T18:10:43.129Z,49.30
2018-08-04T18:15:47.037Z,49.52
2018-08-04T18:20:50.691Z,49.25
2018-08-04T18:25:54.361Z,49.63
2018-08-04T18:30:58.074Z,49.75
2018-08-04T18:36:01.857Z,49.62
2018-08-04T18:41:05.655Z,49.57
2018-08-04T18:46:09.322Z,49.95
2018-08-04T18:51:13.081Z,49.79
2018-08-04T18:56:17.276Z,49.59
2018-08-04T19:01:21.018Z,49.54
2018-08-04T19:06:24.735Z,47.95
2018-08-04T19:11:28.434Z,45.87
2018-08-04T19:16:32.231Z,44.12
2018-08-04T19:21:35.886Z,42.63
2018-08-04T19:26:39.701Z,40.50
2018-08-04T19:31:43.402Z,40.21
2018-08-04T19:36:47.107Z,39.30
2018-08-04T19:41:51.127Z,38.78
2018-08-04T19:46:54.962Z,38.57
2018-08-04T19:51:58.785Z,39.05
2018-08-04T19:57:02.630Z,38.86
2018-08-04T20:02:06.493Z,40.77
2018-08-04T20:07:10.160Z,40.84
2018-08-04T20:12:13.810Z,41.00
2018-08-04T20:17:17.447Z,40.62
2018-08-04T20:22:21.078Z,39.47
2018-08-04T20:27:25.722Z,39.44
2018-08-04T20:32:29.482Z,38.94
2018-08-04T20:37:33.970Z,40.13
2018-08-04T20:42:37.683Z,39.38
2018-08-04T20:47:41.307Z,39.25
2018-08-04T20:52:44.997Z,39.35
2018-08-04T20:57:48.694Z,39.24
2018-08-04T21:02:52.413Z,38.86
2018-08-04T21:07:56.091Z,39.14
2018-08-04T21:12:59.754Z,38.94
2018-08-04T21:18:03.374Z,39.13
2018-08-04T21:23:07.158Z,39.19
2018-08-04T21:28:10.837Z,39.85
2018-08-04T21:33:14.523Z,40.09
2018-08-04T21:38:18.230Z,39.88
2018-08-04T21:43:21.950Z,39.46
2018-08-04T21:48:25.609Z,40.46
2018-08-04T21:53:29.307Z,39.72
2018-08-04T21:58:34.055Z,40.08
2018-08-04T22:03:37.978Z,39.48
2018-08-04T22:08:52.731Z,39.53
2018-08-04T22:13:56.476Z,39.88
2018-08-04T22:19:00.145Z,39.99
2018-08-04T22:24:03.962Z,40.15
2018-08-04T22:29:07.718Z,39.82
2018-08-04T22:34:11.373Z,40.81
2018-08-04T22:39:15.103Z,40.56
2018-08-04T22:44:18.842Z,40.75
2018-08-04T22:49:22.623Z,40.70
2018-08-04T22:54:26.385Z,41.33
2018-08-04T22:59:30.102Z,41.62
2018-08-04T23:04:35.711Z,41.89
2018-08-04T23:09:39.351Z,41.97
2018-08-04T23:14:43.822Z,41.86
2018-08-04T23:19:47.547Z,41.77
2018-08-04T23:24:51.254Z,41.46
2018-08-04T23:29:55.718Z,42.20
2018-08-04T23:34:59.547Z,41.83
2018-08-04T23:40:08.374Z,42.19
2018-08-04T23:45:12.092Z,42.87
2018-08-04T23:51:20.457Z,43.28
2018-08-04T23:56:24.307Z,43.31
